Riyadh, Saudi Arabia
Current Conditions -  °F | °C
As of 7:00 PM on Tuesday 21 Oct 2014 (Local Time) from OERK Reporting Station
Sand / Dust Storm Sand / Dust Storm  
Wind Chill: 82°   Ceiling: Unl
Heat Index: 82°   Visibility: 1.8mi
Dew Point: 41°   Wind: 12mph
Humidity: 23%   Direction: 50°NE
Pressure: 30"   Gusts: NA
Location:  24.65°N, 46.77°E
Report Text: OERK 211600Z 05010KT 3000 DU SKC 28/05 Q1016 NOSIG
Loading
Personal Weather Stations






























Interactive Weather Map
Tropical Storm Tracking
New forecast layout! Learn more

10-Day Weather Forecast

Advertisements
Track Severe Weather on mobile